AirNav   Everest Fuels
 
 499 users online  

AK99 Grand Home Airport
Wasilla, Alaska, USA

GOING TO WASILLA?


FAA INFORMATION EFFECTIVE 18 JUNE 2020

Location

FAA Identifier: AK99
Lat/Long: 61-26-48.0000N 149-45-40.0000W
61-26.800000N 149-45.666667W
61.4466667,-149.7611111
(estimated)
Elevation: 85 ft. / 26 m (estimated)
From city: 15 miles NE of WASILLA, AK
Time zone: UTC -8 (UTC -9 during Standard Time)
Zip code: 99567

Airport Operations

Airport use: Private use. Permission required prior to landing
Activation date: 01/2008
Control tower: no
ARTCC: ANCHORAGE CENTER
FSS: KENAI FLIGHT SERVICE STATION [907-283-7211]
Attendance: UNATNDD
Segmented circle: no

Airport Communications

CTAF: 122.8
WX AWOS-3P at BCV (7 nm E): 135.55 (907-688-0826)
WX AWOS-3P at IYS (10 nm NE): 135.25 (907-373-3801)
WX ASOS at FRN (11 nm S): 134.25
WX ASOS at MRI (14 nm S): 124.25 (907-271-5277)
WX ASOS at LHD (17 nm S): PHONE 907-245-5432
WX ASOS at ANC (18 nm SW): PHONE 907-271-5278

Nearby radio navigation aids

VOR radial/distance  VOR name  Freq  Var
BGQr122/9.4BIG LAKE VORTAC112.5019E
TEDr001/17.7ANCHORAGE VOR/DME113.1518E

 
NDB name  Hdg/Dist  Freq  Var  ID
CAMPBELL LAKE011/18.533816ECMQ -.-. -- --.-

Airport Services

Runway Information

Runway 2/20

Dimensions: 1200 x 75 ft. / 366 x 23 m
Surface: turf
RUNWAY 2  RUNWAY 20
Traffic pattern: leftleft
Obstructions: 50 ft. trees, 20 ft. from runway50 ft. trees, 250 ft. from runway

Airport Ownership and Management from official FAA records

Ownership: Privately-owned
Owner: STEVE GRAND
P. O. BOX 877650
WASILLA, AK 99687
Phone 907-373-2313
Manager: STEVE GRAND
P. O. BOX 877650
WASILLA, AK 99687
Phone 907-373-2313

Airport Operational Statistics

Aircraft based on the field: 1
Single engine airplanes: 1
    

Additional Remarks

LND RY 20 ONLY AND DEPART RY 02 ONLY.
PLINE RY 02.
STOL AIRCRAFT ONLY.

Instrument Procedures

There are no published instrument procedures at AK99.

Some nearby airports with instrument procedures:

PAGQ - Big Lake Airport (5 nm N)
PAWS - Wasilla Airport (10 nm NE)
PAFR - Bryant Army Airfield Heliport (11 nm S)
PAED - Elmendorf Air Force Base (12 nm S)
PAMR - Merrill Field Airport (14 nm S)
PANC - Ted Stevens Anchorage International Airport (18 nm SW)
 
Loc | Ops | Rwys | IFR | FBO | Links
Com | Nav | Svcs | Stats | Notes

Crowley
 
Aerial photo
No photo
 
Sectional chart

 
Airport distance calculator
Flying to Grand Home Airport? Find the distance to fly.

From to AK99

Sunrise and sunset
Times for 11-Jul-2020
 Local
(UTC-8)
 Zulu
(UTC)
Morning civil twilight02:5710:57
Sunrise04:4312:43
Sunset23:2607:26
Evening civil twilight01:1309:13

Current date and time
Zulu (UTC)  11-Jul-2020 11:14:52
Local (UTC-8)  11-Jul-2020 03:14:52
 
METAR
PABV 
7nm E 
111056Z AUTO 00000KT 10SM RA OVC039 13/12 A2978 RMK AO2 RAB44 SLP089 P0000 T01280117
PAFR 
11nm S 
111058Z AUTO 36003KT 10SM SCT033 BKN041 BKN260 13/12 A2973 RMK AO2 SLP073 T01260116 $
PAED 
12nm S 
111056Z 06004KT 10SM BKN045 14/11 A2976 RMK AO2A SLP073 T01440112 $
PAMR 
14nm S 
111053Z 00000KT 10SM OVC043 16/10 A2975 RMK AO2 SLP075 T01560100
PALH 
17nm S 
111053Z 18004KT 10SM BKN045 OVC060 15/12 A2976 RMK AO2 SLP080 T01500122
PANC 
18nm SW 
111053Z 18004KT 10SM OVC047 14/12 A2975 RMK AO2 SLP076 T01440117
TAF
PAED 
12nm S 
111000Z 1110/1216 VRB05KT 9999 FEW010 BKN030 QNH2972INS BECMG 1119/1120 24009KT 9999 VCSH BKN050 QNH2970INS BECMG 1201/1202 25009KT 8000 -SHRA BKN040 QNH2970INS BECMG 1207/1208 VRB04KT 9999 VCSH BKN040 QNH2972INS TX20/1202Z TN13/1113Z
PANC 
18nm SW 
110522Z 1106/1212 16006KT P6SM VCSH BKN070 FM112100 27008KT P6SM VCSH BKN070 FM120300 17015KT P6SM VCSH BKN070
NOTAMs
Click for the latest NOTAMs
NOTAMs are issued by the DoD/FAA and will open in a separate window not controlled by AirNav.

 

 
 

Would you like to see your business listed on this page?

 If your business provides an interesting product or service to pilots, flight crews, aircraft, or users of the Grand Home Airport, you should consider listing it here.  To start the listing process, click on the button below
 
Add a business
 

Other Pages about Grand Home Airport

Update a link
 
Copyright © AirNav, LLC. All rights reserved. Privacy Policy  Contact